createdAt,value
2023-04-14T00:00:06.688Z,100.00
2023-04-14T00:02:37.975Z,100.00
2023-04-14T00:05:06.788Z,100.00
2023-04-14T00:07:34.388Z,100.00
2023-04-14T00:10:02.548Z,100.00
2023-04-14T00:12:30.330Z,100.00
2023-04-14T00:14:57.923Z,100.00
2023-04-14T00:17:27.016Z,100.00
2023-04-14T00:19:54.689Z,100.00
2023-04-14T00:22:22.644Z,100.00
2023-04-14T00:24:51.102Z,100.00
2023-04-14T00:27:18.922Z,100.00
2023-04-14T00:29:46.509Z,100.00
2023-04-14T00:32:14.264Z,100.00
2023-04-14T00:34:44.031Z,100.00
2023-04-14T00:37:11.814Z,100.00
2023-04-14T00:39:39.422Z,100.00
2023-04-14T00:42:07.294Z,100.00
2023-04-14T00:44:35.037Z,100.00
2023-04-14T00:47:03.408Z,100.00
2023-04-14T00:49:31.315Z,100.00
2023-04-14T00:52:00.655Z,100.00
2023-04-14T00:54:29.089Z,100.00
2023-04-14T00:59:42.024Z,100.00
2023-04-14T01:02:09.655Z,100.00
2023-04-14T01:04:49.659Z,100.00
2023-04-14T01:07:22.101Z,100.00
2023-04-14T01:09:50.203Z,100.00
2023-04-14T01:12:27.724Z,100.00
2023-04-14T01:15:04.476Z,100.00
2023-04-14T01:17:38.661Z,100.00
2023-04-14T01:20:14.707Z,100.00
2023-04-14T01:22:49.705Z,100.00
2023-04-14T01:25:55.275Z,100.00
2023-04-14T01:28:41.059Z,100.00
2023-04-14T01:31:26.584Z,100.00
2023-04-14T01:34:07.913Z,100.00
2023-04-14T01:36:42.443Z,100.00
2023-04-14T01:39:14.762Z,100.00
2023-04-14T01:41:46.096Z,100.00
2023-04-14T01:44:15.698Z,100.00
2023-04-14T01:46:46.610Z,100.00
2023-04-14T01:49:14.729Z,100.00
2023-04-14T01:51:46.010Z,100.00
2023-04-14T01:54:16.946Z,100.00
2023-04-14T01:56:47.294Z,100.00
2023-04-14T01:59:16.205Z,100.00
2023-04-14T02:01:47.058Z,100.00
2023-04-14T02:04:16.562Z,100.00
2023-04-14T02:06:44.820Z,100.00
2023-04-14T02:09:13.602Z,100.00
2023-04-14T02:11:42.612Z,100.00
2023-04-14T02:14:11.881Z,100.00
2023-04-14T02:16:40.951Z,100.00
2023-04-14T02:19:10.599Z,100.00
2023-04-14T02:21:39.839Z,100.00
2023-04-14T02:24:08.056Z,100.00
2023-04-14T02:26:41.902Z,100.00
2023-04-14T02:29:13.508Z,100.00
2023-04-14T02:31:46.552Z,100.00
2023-04-14T02:34:22.116Z,100.00
2023-04-14T02:36:53.773Z,100.00
2023-04-14T02:39:27.273Z,100.00
2023-04-14T02:41:59.030Z,100.00
2023-04-14T02:44:29.579Z,100.00
2023-04-14T02:47:03.835Z,100.00
2023-04-14T02:49:35.282Z,100.00
2023-04-14T02:52:06.220Z,100.00
2023-04-14T02:54:36.776Z,100.00
2023-04-14T02:57:05.237Z,100.00
2023-04-14T02:59:34.039Z,100.00
2023-04-14T03:02:05.237Z,100.00
2023-04-14T03:04:36.694Z,100.00
2023-04-14T03:07:06.510Z,100.00
2023-04-14T03:09:34.893Z,100.00
2023-04-14T03:12:04.645Z,100.00
2023-04-14T03:14:33.244Z,100.00
2023-04-14T03:17:02.028Z,100.00
2023-04-14T03:19:30.493Z,100.00
2023-04-14T03:22:00.248Z,100.00
2023-04-14T03:24:31.140Z,100.00
2023-04-14T03:27:03.816Z,100.00
2023-04-14T03:29:37.778Z,100.00
2023-04-14T03:32:07.894Z,100.00
2023-04-14T03:34:39.520Z,100.00
2023-04-14T03:37:09.293Z,100.00
2023-04-14T03:39:40.168Z,100.00
2023-04-14T03:42:09.248Z,100.00
2023-04-14T03:44:39.880Z,100.00
2023-04-14T03:47:08.250Z,100.00
2023-04-14T03:49:39.300Z,100.00
2023-04-14T03:52:13.286Z,100.00
2023-04-14T03:54:43.806Z,100.00
2023-04-14T03:57:14.596Z,100.00
2023-04-14T03:59:43.248Z,100.00
2023-04-14T04:02:12.718Z,100.00
2023-04-14T04:04:42.483Z,100.00
2023-04-14T04:07:14.014Z,100.00
2023-04-14T04:09:42.810Z,100.00
2023-04-14T04:12:12.962Z,100.00
2023-04-14T04:14:41.405Z,100.00
2023-04-14T04:17:11.560Z,100.00
2023-04-14T04:19:40.918Z,100.00
2023-04-14T04:22:10.168Z,100.00
2023-04-14T04:24:50.426Z,100.00
2023-04-14T04:27:27.757Z,100.00
2023-04-14T04:29:56.407Z,100.00
2023-04-14T04:32:25.637Z,100.00
2023-04-14T04:34:54.633Z,100.00
2023-04-14T04:37:22.815Z,100.00
2023-04-14T04:39:51.764Z,100.00
2023-04-14T04:42:19.836Z,100.00
2023-04-14T04:44:47.496Z,100.00
2023-04-14T04:47:23.544Z,100.00
2023-04-14T04:49:53.833Z,100.00
2023-04-14T04:52:21.609Z,100.00
2023-04-14T04:54:52.337Z,100.00
2023-04-14T04:57:21.979Z,100.00
2023-04-14T04:59:49.865Z,100.00
2023-04-14T05:02:18.005Z,100.00
2023-04-14T05:04:46.023Z,100.00
2023-04-14T05:07:13.755Z,100.00
2023-04-14T05:09:41.546Z,100.00
2023-04-14T05:12:09.597Z,100.00
2023-04-14T05:14:39.066Z,100.00
2023-04-14T05:17:07.014Z,100.00
2023-04-14T05:19:34.654Z,100.00
2023-04-14T05:22:03.129Z,100.00
2023-04-14T05:24:30.884Z,100.00
2023-04-14T05:29:33.205Z,100.00
2023-04-14T05:32:02.354Z,100.00
2023-04-14T05:34:30.150Z,100.00
2023-04-14T05:36:57.872Z,100.00
2023-04-14T05:39:25.645Z,100.00
2023-04-14T05:41:53.819Z,100.00
2023-04-14T05:44:22.637Z,100.00
2023-04-14T05:46:50.643Z,100.00
2023-04-14T05:49:19.674Z,100.00
2023-04-14T05:51:47.271Z,100.00
2023-04-14T05:54:18.595Z,100.00
2023-04-14T05:56:47.298Z,100.00
2023-04-14T05:59:16.258Z,100.00
2023-04-14T06:01:45.493Z,100.00
2023-04-14T06:04:13.491Z,100.00
2023-04-14T06:06:42.530Z,100.00
2023-04-14T06:09:10.732Z,100.00
2023-04-14T06:11:39.693Z,100.00
2023-04-14T06:14:07.783Z,100.00
2023-04-14T06:16:35.575Z,100.00
2023-04-14T06:19:03.752Z,100.00
2023-04-14T06:21:32.478Z,100.00
2023-04-14T06:24:01.678Z,100.00
2023-04-14T06:26:29.238Z,100.00
2023-04-14T06:28:57.335Z,100.00
2023-04-14T06:31:25.093Z,100.00
2023-04-14T06:33:52.948Z,100.00
2023-04-14T06:36:20.565Z,100.00
2023-04-14T06:38:49.200Z,100.00
2023-04-14T06:41:18.354Z,100.00
2023-04-14T06:43:46.359Z,100.00
2023-04-14T06:46:14.762Z,100.00
2023-04-14T06:48:42.582Z,100.00
2023-04-14T06:51:12.361Z,100.00
2023-04-14T06:53:40.013Z,100.00
2023-04-14T06:56:09.663Z,100.00
2023-04-14T06:58:40.232Z,100.00
2023-04-14T07:01:09.649Z,100.00
2023-04-14T07:03:37.404Z,100.00
2023-04-14T07:06:12.139Z,100.00
2023-04-14T07:08:40.610Z,100.00
2023-04-14T07:11:10.244Z,100.00
2023-04-14T07:13:48.322Z,100.00
2023-04-14T07:16:16.425Z,100.00
2023-04-14T07:18:44.132Z,100.00
2023-04-14T07:21:11.854Z,100.00
2023-04-14T07:23:39.877Z,97.67
2023-04-14T07:26:08.687Z,99.56
2023-04-14T07:28:37.133Z,100.00
2023-04-14T07:31:10.211Z,100.00
2023-04-14T07:33:38.645Z,100.00
2023-04-14T07:36:07.272Z,97.62
2023-04-14T07:38:35.001Z,100.00
2023-04-14T07:41:05.225Z,100.00
2023-04-14T07:43:35.452Z,98.95
2023-04-14T07:46:05.250Z,95.79
2023-04-14T07:48:38.832Z,94.28
2023-04-14T07:51:07.054Z,95.88
2023-04-14T07:53:40.675Z,96.74
2023-04-14T07:56:08.239Z,94.85
2023-04-14T07:58:35.980Z,91.23
2023-04-14T08:01:04.619Z,90.25
2023-04-14T08:03:32.405Z,88.46
2023-04-14T08:06:04.153Z,87.39
2023-04-14T08:08:32.009Z,86.68
2023-04-14T08:10:59.704Z,88.51
2023-04-14T08:13:27.513Z,85.53
2023-04-14T08:15:55.109Z,80.11
2023-04-14T08:18:23.624Z,77.20
2023-04-14T08:20:51.490Z,77.44
2023-04-14T08:23:21.084Z,72.70
2023-04-14T08:25:49.057Z,77.24
2023-04-14T08:28:17.291Z,79.52
2023-04-14T08:30:44.999Z,74.91
2023-04-14T08:33:13.685Z,72.10
2023-04-14T08:35:43.159Z,68.67
2023-04-14T08:38:18.654Z,67.67
2023-04-14T08:40:51.583Z,74.13
2023-04-14T08:43:19.775Z,77.09
2023-04-14T08:45:48.594Z,77.12
2023-04-14T08:48:20.586Z,77.48
2023-04-14T08:50:59.165Z,74.34
2023-04-14T08:53:28.583Z,73.87
2023-04-14T08:56:01.362Z,71.52
2023-04-14T08:58:29.388Z,67.60
2023-04-14T09:00:59.140Z,68.69
2023-04-14T09:03:27.113Z,66.22
2023-04-14T09:05:55.245Z,67.45
2023-04-14T09:08:23.465Z,65.31
2023-04-14T09:10:51.683Z,67.42
2023-04-14T09:13:32.798Z,66.32
2023-04-14T09:16:01.880Z,64.45
2023-04-14T09:18:31.658Z,62.29
2023-04-14T09:21:29.644Z,63.61
2023-04-14T09:23:52.348Z,65.15
2023-04-14T09:26:20.155Z,68.96
2023-04-14T09:28:49.330Z,71.93
2023-04-14T09:31:20.683Z,72.46
2023-04-14T09:33:51.468Z,73.24
2023-04-14T09:36:27.864Z,71.97
2023-04-14T09:38:58.102Z,74.32
2023-04-14T09:41:27.665Z,73.23
2023-04-14T09:43:56.980Z,76.65
2023-04-14T09:46:25.016Z,76.42
2023-04-14T09:51:53.330Z,74.57
2023-04-14T09:54:25.660Z,74.57
2023-04-14T09:56:56.252Z,75.63
2023-04-14T09:59:36.881Z,73.19
2023-04-14T10:02:08.637Z,74.32
2023-04-14T10:04:38.916Z,75.07
2023-04-14T10:07:07.985Z,75.34
2023-04-14T10:09:37.735Z,75.33
2023-04-14T10:12:10.624Z,75.49
2023-04-14T10:14:40.220Z,74.35
2023-04-14T10:17:08.207Z,71.85
2023-04-14T10:19:37.578Z,70.77
2023-04-14T10:22:06.551Z,66.42
2023-04-14T10:24:36.018Z,67.92
2023-04-14T10:27:05.224Z,69.23
2023-04-14T10:29:35.770Z,70.93
2023-04-14T10:32:14.490Z,70.01
2023-04-14T10:34:57.684Z,68.35
2023-04-14T10:37:29.185Z,67.18
2023-04-14T10:39:57.676Z,68.94
2023-04-14T10:42:25.971Z,69.23
2023-04-14T10:45:06.242Z,66.18
2023-04-14T10:47:43.306Z,62.68
2023-04-14T10:50:20.140Z,62.15
2023-04-14T10:52:50.990Z,60.81
2023-04-14T10:55:24.912Z,61.29
2023-04-14T10:57:54.493Z,60.62
2023-04-14T11:00:25.166Z,61.15
2023-04-14T11:02:59.252Z,62.53
2023-04-14T11:05:27.169Z,61.76
2023-04-14T11:07:58.712Z,62.84
2023-04-14T11:10:33.108Z,64.91
2023-04-14T11:13:07.128Z,63.93
2023-04-14T11:15:50.479Z,62.24
2023-04-14T11:18:22.674Z,60.05
2023-04-14T11:20:53.588Z,60.36
2023-04-14T11:23:29.333Z,61.87
2023-04-14T11:25:58.053Z,60.70
2023-04-14T11:28:29.284Z,57.53
2023-04-14T11:30:59.482Z,55.82
2023-04-14T11:33:32.491Z,54.61
2023-04-14T11:36:00.861Z,52.38
2023-04-14T11:38:29.176Z,50.94
2023-04-14T11:40:57.224Z,51.98
2023-04-14T11:43:26.578Z,53.39
2023-04-14T11:45:54.735Z,50.86
2023-04-14T11:48:23.763Z,49.50
2023-04-14T11:50:56.504Z,51.42
2023-04-14T11:53:24.126Z,51.93
2023-04-14T11:55:53.982Z,51.25
2023-04-14T11:58:28.827Z,51.09
2023-04-14T12:00:58.119Z,50.13
2023-04-14T12:03:27.742Z,49.44
2023-04-14T12:06:01.508Z,49.17
2023-04-14T12:08:31.304Z,48.07
2023-04-14T12:10:59.255Z,47.04
2023-04-14T12:13:28.202Z,49.00
2023-04-14T12:15:56.352Z,47.50
2023-04-14T12:18:24.529Z,46.60
2023-04-14T12:20:54.504Z,46.49
2023-04-14T12:23:25.538Z,45.42
2023-04-14T12:25:53.820Z,43.70
2023-04-14T12:28:27.753Z,42.13
2023-04-14T12:30:59.220Z,40.79
2023-04-14T12:33:28.506Z,38.54
2023-04-14T12:36:03.093Z,39.82
2023-04-14T12:38:32.532Z,39.83
2023-04-14T12:41:00.427Z,39.11
2023-04-14T12:43:30.149Z,39.05
2023-04-14T12:45:58.631Z,38.86
2023-04-14T12:48:44.448Z,37.39
2023-04-14T12:51:13.623Z,35.09
2023-04-14T12:53:43.770Z,36.48
2023-04-14T12:56:14.932Z,38.56
2023-04-14T12:58:46.577Z,39.33
2023-04-14T13:01:15.598Z,38.91
2023-04-14T13:03:46.014Z,39.01
2023-04-14T13:06:17.969Z,39.13
2023-04-14T13:08:48.287Z,38.92
2023-04-14T13:11:19.877Z,38.64
2023-04-14T13:13:47.675Z,38.64
2023-04-14T13:16:18.291Z,37.15
2023-04-14T13:18:49.307Z,37.59
2023-04-14T13:21:17.330Z,37.56
2023-04-14T13:23:45.075Z,36.53
2023-04-14T13:26:14.302Z,36.89
2023-04-14T13:28:42.016Z,38.40
2023-04-14T13:31:11.577Z,38.68
2023-04-14T13:33:39.402Z,39.69
2023-04-14T13:36:15.413Z,39.00
2023-04-14T13:38:49.551Z,39.03
2023-04-14T13:41:19.625Z,39.06
2023-04-14T13:43:48.228Z,38.92
2023-04-14T13:46:16.621Z,39.87
2023-04-14T13:48:46.335Z,40.01
2023-04-14T13:51:14.148Z,40.63
2023-04-14T13:53:42.171Z,41.61
2023-04-14T13:56:11.177Z,43.36
2023-04-14T13:58:40.222Z,43.44
2023-04-14T14:01:12.037Z,44.23
2023-04-14T14:03:41.219Z,44.17
2023-04-14T14:06:09.053Z,42.90
2023-04-14T14:08:37.958Z,42.20
2023-04-14T14:11:07.204Z,41.29
2023-04-14T14:13:35.957Z,40.92
2023-04-14T14:16:08.764Z,39.56
2023-04-14T14:18:38.046Z,39.81
2023-04-14T14:21:06.426Z,38.28
2023-04-14T14:23:34.336Z,39.08
2023-04-14T14:26:03.261Z,37.71
2023-04-14T14:28:30.895Z,38.08
2023-04-14T14:30:59.598Z,39.00
2023-04-14T14:33:28.637Z,39.46
2023-04-14T14:35:56.330Z,39.25
2023-04-14T14:38:25.481Z,40.50
2023-04-14T14:40:53.253Z,40.62
2023-04-14T14:43:21.888Z,40.10
2023-04-14T14:46:03.780Z,40.39
2023-04-14T14:48:37.560Z,40.18
2023-04-14T14:51:08.776Z,40.38
2023-04-14T14:53:36.410Z,41.32
2023-04-14T14:56:04.493Z,40.96
2023-04-14T14:58:32.408Z,41.27
2023-04-14T15:01:08.854Z,40.10
2023-04-14T15:03:41.356Z,41.01
2023-04-14T15:06:13.468Z,40.50
2023-04-14T15:08:43.771Z,41.22
2023-04-14T15:11:25.680Z,41.19
2023-04-14T15:13:56.627Z,40.88
2023-04-14T15:16:29.440Z,41.77
2023-04-14T15:18:59.168Z,40.94
2023-04-14T15:21:27.185Z,40.93
2023-04-14T15:23:56.204Z,41.27
2023-04-14T15:26:24.304Z,41.24
2023-04-14T15:28:51.972Z,40.29
2023-04-14T15:31:19.961Z,41.45
2023-04-14T15:33:47.693Z,40.99
2023-04-14T15:36:16.602Z,41.90
2023-04-14T15:38:44.264Z,42.50
2023-04-14T15:41:11.865Z,41.63
2023-04-14T15:43:43.621Z,42.08
2023-04-14T15:46:14.386Z,42.60
2023-04-14T15:48:43.825Z,43.54
2023-04-14T15:51:12.488Z,44.12
2023-04-14T15:53:43.632Z,44.74
2023-04-14T15:56:18.634Z,44.75
2023-04-14T15:58:46.613Z,44.72
2023-04-14T16:01:15.312Z,44.94
2023-04-14T16:03:46.108Z,45.35
2023-04-14T16:06:16.962Z,45.83
2023-04-14T16:08:46.334Z,45.83
2023-04-14T16:11:19.708Z,45.96
2023-04-14T16:13:48.867Z,45.58
2023-04-14T16:16:17.663Z,44.40
2023-04-14T16:18:45.536Z,44.25
2023-04-14T16:21:14.823Z,44.31
2023-04-14T16:23:42.818Z,44.71
2023-04-14T16:26:13.669Z,44.38
2023-04-14T16:28:41.759Z,43.97
2023-04-14T16:31:09.562Z,42.98
2023-04-14T16:33:37.797Z,43.51
2023-04-14T16:36:07.237Z,42.76
2023-04-14T16:38:35.364Z,42.98
2023-04-14T16:41:03.588Z,42.32
2023-04-14T16:43:34.808Z,42.09
2023-04-14T16:46:03.431Z,41.92
2023-04-14T16:48:33.189Z,42.01
2023-04-14T16:51:08.985Z,41.75
2023-04-14T16:53:37.638Z,41.87
2023-04-14T16:56:05.693Z,41.39
2023-04-14T16:58:35.552Z,41.78
2023-04-14T17:01:03.484Z,40.87
2023-04-14T17:03:34.486Z,40.28
2023-04-14T17:06:18.092Z,40.34
2023-04-14T17:08:47.978Z,40.09
2023-04-14T17:11:19.683Z,40.25
2023-04-14T17:13:49.703Z,40.77
2023-04-14T17:16:20.056Z,41.10
2023-04-14T17:18:48.254Z,41.73
2023-04-14T17:21:16.273Z,41.23
2023-04-14T17:23:46.536Z,41.82
2023-04-14T17:26:18.270Z,41.93
2023-04-14T17:28:46.618Z,41.39
2023-04-14T17:31:22.368Z,42.09
2023-04-14T17:33:50.647Z,42.27
2023-04-14T17:36:18.472Z,41.79
2023-04-14T17:38:47.003Z,41.69
2023-04-14T17:41:14.900Z,41.51
2023-04-14T17:44:05.057Z,41.62
2023-04-14T17:46:37.138Z,41.88
2023-04-14T17:49:09.431Z,42.00
2023-04-14T17:51:38.320Z,41.16
2023-04-14T17:54:06.285Z,41.77
2023-04-14T17:56:33.998Z,42.40
2023-04-14T17:59:02.125Z,42.32
2023-04-14T18:01:30.110Z,42.41
2023-04-14T18:04:00.596Z,42.85
2023-04-14T18:06:28.826Z,43.07
2023-04-14T18:08:58.881Z,44.03
2023-04-14T18:11:27.097Z,44.53
2023-04-14T18:13:54.718Z,44.41
2023-04-14T18:16:25.248Z,45.07
2023-04-14T18:18:53.109Z,48.66
2023-04-14T18:21:22.125Z,48.13
2023-04-14T18:28:53.466Z,46.59
2023-04-14T18:31:21.196Z,46.57
2023-04-14T18:33:48.921Z,47.16
2023-04-14T18:36:16.518Z,47.11
2023-04-14T18:38:47.064Z,46.90
2023-04-14T18:41:14.833Z,47.30
2023-04-14T18:43:42.665Z,48.09
2023-04-14T18:46:11.627Z,48.10
2023-04-14T18:48:40.481Z,47.71
2023-04-14T18:51:11.239Z,48.02
2023-04-14T18:53:41.752Z,47.76
2023-04-14T18:56:10.881Z,48.06
2023-04-14T18:58:38.585Z,48.20
2023-04-14T19:01:06.662Z,49.02
2023-04-14T19:03:34.438Z,49.39
2023-04-14T19:06:02.939Z,50.05
2023-04-14T19:08:30.891Z,50.52
2023-04-14T19:11:00.120Z,50.84
2023-04-14T19:13:31.630Z,50.42
2023-04-14T19:16:11.349Z,50.80
2023-04-14T19:18:39.552Z,50.96
2023-04-14T19:21:08.245Z,51.43
2023-04-14T19:23:36.761Z,51.61
2023-04-14T19:26:08.269Z,52.77
2023-04-14T19:28:40.301Z,52.88
2023-04-14T19:31:07.951Z,52.57
2023-04-14T19:33:35.720Z,53.60
2023-04-14T19:36:12.548Z,54.93
2023-04-14T19:38:40.615Z,55.92
2023-04-14T19:41:08.743Z,56.23
2023-04-14T19:43:38.268Z,57.06
2023-04-14T19:46:07.230Z,57.16
2023-04-14T19:48:35.395Z,57.79
2023-04-14T19:51:03.919Z,58.95
2023-04-14T19:53:32.941Z,59.57
2023-04-14T19:56:02.121Z,59.96
2023-04-14T19:58:30.603Z,59.76
2023-04-14T20:01:01.016Z,59.99
2023-04-14T20:03:29.621Z,60.97
2023-04-14T20:05:58.972Z,61.32
2023-04-14T20:08:27.537Z,62.59
2023-04-14T20:10:56.433Z,62.84
2023-04-14T20:13:27.502Z,63.21
2023-04-14T20:15:55.190Z,63.75
2023-04-14T20:18:25.939Z,64.02
2023-04-14T20:20:54.909Z,64.50
2023-04-14T20:23:22.980Z,64.67
2023-04-14T20:25:51.521Z,65.08
2023-04-14T20:28:20.019Z,64.71
2023-04-14T20:30:49.687Z,64.71
2023-04-14T20:33:18.488Z,64.45
2023-04-14T20:35:55.239Z,65.15
2023-04-14T20:38:23.510Z,65.78
2023-04-14T20:40:52.928Z,65.61
2023-04-14T20:43:20.724Z,66.12
2023-04-14T20:45:51.829Z,66.30
2023-04-14T20:48:20.575Z,65.74
2023-04-14T20:50:50.119Z,66.20
2023-04-14T20:53:22.040Z,66.60
2023-04-14T20:55:51.134Z,65.89
2023-04-14T20:58:19.247Z,66.00
2023-04-14T21:00:46.856Z,66.60
2023-04-14T21:03:14.873Z,66.29
2023-04-14T21:05:42.618Z,66.71
2023-04-14T21:08:12.581Z,67.43
2023-04-14T21:11:02.217Z,67.25
2023-04-14T21:15:29.552Z,67.42
2023-04-14T21:16:16.232Z,67.39
2023-04-14T21:18:44.009Z,66.83
2023-04-14T21:21:12.258Z,67.05
2023-04-14T21:23:48.605Z,67.92
2023-04-14T21:26:16.585Z,67.63
2023-04-14T21:28:46.905Z,69.64
2023-04-14T21:31:15.879Z,69.64
2023-04-14T21:33:43.773Z,70.03
2023-04-14T21:36:11.872Z,70.01
2023-04-14T21:38:42.357Z,71.03
2023-04-14T21:41:11.506Z,72.96
2023-04-14T21:43:39.587Z,74.90
2023-04-14T21:46:08.290Z,74.85
2023-04-14T21:48:36.897Z,74.73
2023-04-14T21:51:08.079Z,73.38
2023-04-14T21:53:36.472Z,70.63
2023-04-14T21:56:10.151Z,69.86
2023-04-14T21:58:39.175Z,69.22
2023-04-14T22:01:09.610Z,69.95
2023-04-14T22:03:38.775Z,71.26
2023-04-14T22:06:09.825Z,71.96
2023-04-14T22:08:37.488Z,72.83
2023-04-14T22:11:06.918Z,72.22
2023-04-14T22:13:34.839Z,72.58
2023-04-14T22:16:03.562Z,73.69
2023-04-14T22:18:31.904Z,73.09
2023-04-14T22:20:59.787Z,74.24
2023-04-14T22:23:28.468Z,75.07
2023-04-14T22:25:56.425Z,75.61
2023-04-14T22:28:26.159Z,76.16
2023-04-14T22:30:54.147Z,76.56
2023-04-14T22:33:22.442Z,76.94
2023-04-14T22:35:50.479Z,77.89
2023-04-14T22:38:18.679Z,77.99
2023-04-14T22:40:49.262Z,78.57
2023-04-14T22:43:19.185Z,78.35
2023-04-14T22:45:50.926Z,76.80
2023-04-14T22:48:20.999Z,76.73
2023-04-14T22:50:49.040Z,76.58
2023-04-14T22:53:16.950Z,76.58
2023-04-14T22:55:45.053Z,74.62
2023-04-14T22:58:16.665Z,75.39
2023-04-14T23:00:45.168Z,76.77
2023-04-14T23:03:15.696Z,76.19
2023-04-14T23:05:44.569Z,75.23
2023-04-14T23:08:12.100Z,74.62
2023-04-14T23:10:40.091Z,76.21
2023-04-14T23:13:08.249Z,76.08
2023-04-14T23:15:37.264Z,76.06
2023-04-14T23:18:05.472Z,76.95
2023-04-14T23:20:37.162Z,76.97
2023-04-14T23:23:05.813Z,77.92
2023-04-14T23:25:33.656Z,78.77
2023-04-14T23:28:01.641Z,78.64
2023-04-14T23:30:37.249Z,79.58
2023-04-14T23:33:05.002Z,79.42
2023-04-14T23:35:36.840Z,79.82
2023-04-14T23:38:04.389Z,80.30
2023-04-14T23:40:33.312Z,80.12
2023-04-14T23:43:03.288Z,79.93
2023-04-14T23:45:36.992Z,80.57
2023-04-14T23:48:07.191Z,80.17
2023-04-14T23:50:58.961Z,80.70
2023-04-14T23:53:27.154Z,80.95
2023-04-14T23:55:55.124Z,80.60
2023-04-14T23:58:26.832Z,80.82
